createdAt,value
2019-03-26T00:02:23.626Z,33.70
2019-03-26T00:04:56.872Z,33.80
2019-03-26T00:07:29.873Z,33.60
2019-03-26T00:10:03.021Z,33.60
2019-03-26T00:12:35.841Z,33.70
2019-03-26T00:15:09.661Z,33.70
2019-03-26T00:17:42.648Z,33.60
2019-03-26T00:20:15.837Z,33.50
2019-03-26T00:22:49.205Z,33.50
2019-03-26T00:25:22.288Z,33.40
2019-03-26T00:27:55.168Z,33.20
2019-03-26T00:30:28.024Z,33.10
2019-03-26T00:33:01.164Z,33.10
2019-03-26T00:35:34.408Z,33.20
2019-03-26T00:38:07.348Z,33.20
2019-03-26T00:40:40.868Z,33.20
2019-03-26T00:43:13.718Z,33.10
2019-03-26T00:45:47.426Z,33.20
2019-03-26T00:48:21.487Z,33.00
2019-03-26T00:50:54.610Z,32.90
2019-03-26T00:53:27.552Z,32.80
2019-03-26T00:56:00.921Z,32.80
2019-03-26T00:58:33.960Z,32.80
2019-03-26T01:01:07.504Z,32.60
2019-03-26T01:03:40.488Z,32.50
2019-03-26T01:06:13.521Z,32.50
2019-03-26T01:08:47.122Z,32.60
2019-03-26T01:11:19.729Z,32.60
2019-03-26T01:13:53.080Z,32.50
2019-03-26T01:16:27.195Z,32.50
2019-03-26T01:19:01.185Z,32.60
2019-03-26T01:21:35.789Z,32.60
2019-03-26T01:24:09.338Z,32.60
2019-03-26T01:26:42.280Z,32.30
2019-03-26T01:29:15.514Z,32.20
2019-03-26T01:31:48.437Z,32.00
2019-03-26T01:34:21.254Z,32.00
2019-03-26T01:36:54.033Z,31.90
2019-03-26T01:39:26.900Z,31.90
2019-03-26T01:41:59.804Z,32.00
2019-03-26T01:44:32.978Z,32.00
2019-03-26T01:47:05.773Z,32.00
2019-03-26T01:49:38.978Z,32.00
2019-03-26T01:52:11.774Z,32.00
2019-03-26T01:54:45.403Z,32.10
2019-03-26T01:57:19.382Z,32.10
2019-03-26T01:59:52.144Z,32.30
2019-03-26T02:02:26.704Z,32.70
2019-03-26T02:05:00.710Z,32.90
2019-03-26T02:07:34.558Z,33.00
2019-03-26T02:10:08.052Z,33.10
2019-03-26T02:12:42.703Z,33.30
2019-03-26T02:15:19.195Z,33.50
2019-03-26T02:17:52.536Z,33.80
2019-03-26T02:20:25.751Z,33.90
2019-03-26T02:22:58.627Z,33.90
2019-03-26T02:25:31.799Z,34.20
2019-03-26T02:28:05.214Z,34.40
2019-03-26T02:30:38.936Z,34.40
2019-03-26T02:33:11.918Z,34.30
2019-03-26T02:35:45.407Z,34.40
2019-03-26T02:38:18.192Z,34.70
2019-03-26T02:40:51.388Z,35.00
2019-03-26T02:43:24.383Z,35.00
2019-03-26T02:45:57.635Z,35.10
2019-03-26T02:48:30.584Z,35.10
2019-03-26T02:51:03.731Z,35.10
2019-03-26T02:53:36.427Z,35.10
2019-03-26T02:56:09.569Z,35.30
2019-03-26T02:58:42.500Z,35.20
2019-03-26T03:01:16.658Z,35.10
2019-03-26T03:03:49.511Z,35.10
2019-03-26T03:06:22.674Z,35.10
2019-03-26T03:08:55.901Z,35.10
2019-03-26T03:11:30.313Z,34.90
2019-03-26T03:14:03.030Z,34.90
2019-03-26T03:16:36.052Z,34.80
2019-03-26T03:19:09.062Z,34.50
2019-03-26T03:21:42.840Z,34.20
2019-03-26T03:24:17.915Z,33.90
2019-03-26T03:26:51.747Z,33.30
2019-03-26T03:29:25.310Z,32.60
2019-03-26T03:31:58.912Z,31.80
2019-03-26T03:34:32.549Z,31.10
2019-03-26T03:37:05.509Z,30.40
2019-03-26T03:39:39.853Z,29.60
2019-03-26T03:42:12.580Z,28.80
2019-03-26T03:44:45.687Z,28.10
2019-03-26T03:47:20.201Z,27.60
2019-03-26T03:49:53.532Z,27.20
2019-03-26T03:52:27.112Z,26.90
2019-03-26T03:55:00.561Z,26.70
2019-03-26T03:57:34.298Z,26.40
2019-03-26T04:00:10.053Z,26.30
2019-03-26T04:02:42.856Z,26.10
2019-03-26T04:05:16.130Z,25.80
2019-03-26T04:07:49.070Z,25.70
2019-03-26T04:10:22.092Z,25.60
2019-03-26T04:12:55.303Z,25.50
2019-03-26T04:15:28.079Z,25.40
2019-03-26T04:18:00.976Z,25.40
2019-03-26T04:20:33.855Z,25.30
2019-03-26T04:23:06.894Z,25.20
2019-03-26T04:25:40.128Z,25.10
2019-03-26T04:28:12.991Z,25.10
2019-03-26T04:30:45.971Z,24.90
2019-03-26T04:33:18.785Z,24.90
2019-03-26T04:35:51.972Z,24.80
2019-03-26T04:38:24.937Z,24.70
2019-03-26T04:40:57.922Z,24.70
2019-03-26T04:43:30.727Z,24.60
2019-03-26T04:46:03.880Z,24.60
2019-03-26T04:48:36.701Z,24.50
2019-03-26T04:51:10.061Z,24.50
2019-03-26T04:53:43.149Z,24.40
2019-03-26T04:56:16.093Z,24.40
2019-03-26T04:58:48.846Z,24.30
2019-03-26T05:01:22.361Z,24.30
2019-03-26T05:03:55.418Z,24.20
2019-03-26T05:06:37.442Z,24.10
2019-03-26T05:09:03.953Z,24.10
2019-03-26T05:11:36.860Z,24.00
2019-03-26T05:14:10.571Z,23.90
2019-03-26T05:16:43.308Z,23.90
2019-03-26T05:19:17.299Z,23.90
2019-03-26T05:21:50.233Z,23.80
2019-03-26T05:24:23.100Z,23.80
2019-03-26T05:26:56.004Z,23.70
2019-03-26T05:29:29.176Z,23.70
2019-03-26T05:32:01.834Z,23.60
2019-03-26T05:34:35.950Z,23.60
2019-03-26T05:37:08.750Z,23.50
2019-03-26T05:39:41.758Z,23.50
2019-03-26T05:42:14.706Z,23.30
2019-03-26T05:44:47.577Z,23.20
2019-03-26T05:47:20.500Z,23.20
2019-03-26T05:49:54.562Z,23.20
2019-03-26T05:52:27.520Z,23.20
2019-03-26T05:55:00.631Z,23.10
2019-03-26T05:57:33.815Z,23.10
2019-03-26T06:00:08.915Z,23.00
2019-03-26T06:02:43.309Z,23.00
2019-03-26T06:05:16.117Z,23.00
2019-03-26T06:07:49.163Z,22.90
2019-03-26T06:10:22.201Z,22.90
2019-03-26T06:12:55.957Z,22.80
2019-03-26T06:15:29.074Z,22.80
2019-03-26T06:18:01.977Z,22.80
2019-03-26T06:20:35.062Z,22.70
2019-03-26T06:23:07.799Z,22.60
2019-03-26T06:25:41.777Z,22.60
2019-03-26T06:28:14.544Z,22.60
2019-03-26T06:30:47.742Z,22.60
2019-03-26T06:33:21.234Z,22.60
2019-03-26T06:35:55.183Z,22.60
2019-03-26T06:38:28.015Z,22.50
2019-03-26T06:41:00.992Z,22.50
2019-03-26T06:43:33.779Z,22.40
2019-03-26T06:46:08.089Z,22.40
2019-03-26T06:48:41.946Z,22.50
2019-03-26T06:51:14.793Z,22.40
2019-03-26T06:53:48.943Z,22.40
2019-03-26T06:56:21.782Z,22.40
2019-03-26T06:58:55.658Z,22.30
2019-03-26T07:01:28.658Z,22.30
2019-03-26T07:04:01.517Z,22.30
2019-03-26T07:06:35.433Z,22.30
2019-03-26T07:09:09.497Z,22.30
2019-03-26T07:11:42.472Z,22.30
2019-03-26T07:14:15.954Z,22.30
2019-03-26T07:16:48.906Z,22.30
2019-03-26T07:19:22.761Z,22.30
2019-03-26T07:21:55.611Z,22.30
2019-03-26T07:24:28.923Z,22.30
2019-03-26T07:27:01.706Z,22.30
2019-03-26T07:29:34.595Z,22.20
2019-03-26T07:32:07.706Z,22.20
2019-03-26T07:34:40.502Z,22.20
2019-03-26T07:37:13.560Z,22.20
2019-03-26T07:39:46.665Z,22.20
2019-03-26T07:42:19.504Z,22.10
2019-03-26T07:44:53.604Z,22.10
2019-03-26T07:47:27.949Z,22.10
2019-03-26T07:50:02.051Z,22.10
2019-03-26T07:52:34.955Z,22.00
2019-03-26T07:55:09.369Z,22.00
2019-03-26T07:57:44.399Z,22.00
2019-03-26T08:00:17.613Z,22.00
2019-03-26T08:02:50.775Z,22.00
2019-03-26T08:05:29.650Z,22.00
2019-03-26T08:07:59.608Z,21.90
2019-03-26T08:10:32.615Z,21.90
2019-03-26T08:13:06.918Z,21.90
2019-03-26T08:15:40.949Z,21.80
2019-03-26T08:18:14.950Z,21.80
2019-03-26T08:20:48.116Z,21.80
2019-03-26T08:23:20.944Z,21.80
2019-03-26T08:25:54.041Z,21.80
2019-03-26T08:28:27.839Z,21.80
2019-03-26T08:31:00.739Z,21.70
2019-03-26T08:33:37.980Z,21.70
2019-03-26T08:36:10.846Z,21.70
2019-03-26T08:38:44.197Z,21.70
2019-03-26T08:41:17.027Z,21.60
2019-03-26T08:43:51.223Z,21.60
2019-03-26T08:46:23.879Z,21.60
2019-03-26T08:48:56.936Z,21.60
2019-03-26T08:51:30.008Z,21.60
2019-03-26T08:54:03.481Z,21.60
2019-03-26T08:56:36.595Z,21.50
2019-03-26T08:59:09.923Z,21.50
2019-03-26T09:01:42.668Z,21.50
2019-03-26T09:04:15.864Z,21.50
2019-03-26T09:06:48.695Z,21.50
2019-03-26T09:09:21.663Z,21.50
2019-03-26T09:11:54.549Z,21.50
2019-03-26T09:14:27.150Z,21.50
2019-03-26T09:17:00.172Z,21.50
2019-03-26T09:19:33.361Z,21.50
2019-03-26T09:22:06.110Z,21.50
2019-03-26T09:24:38.933Z,21.50
2019-03-26T09:27:11.800Z,21.50
2019-03-26T09:29:44.690Z,21.50
2019-03-26T09:32:17.401Z,21.50
2019-03-26T09:34:50.160Z,21.50
2019-03-26T09:37:23.466Z,21.50
2019-03-26T09:39:56.277Z,21.40
2019-03-26T09:42:29.118Z,21.40
2019-03-26T09:45:01.846Z,21.40
2019-03-26T09:47:34.954Z,21.40
2019-03-26T09:50:11.896Z,21.40
2019-03-26T09:52:45.020Z,21.40
2019-03-26T09:55:18.001Z,21.30
2019-03-26T09:57:50.762Z,21.30
2019-03-26T10:00:23.427Z,21.30
2019-03-26T10:02:56.333Z,21.30
2019-03-26T10:05:29.170Z,21.30
2019-03-26T10:08:02.087Z,21.20
2019-03-26T10:10:34.935Z,21.20
2019-03-26T10:13:07.866Z,21.20
2019-03-26T10:15:41.019Z,21.20
2019-03-26T10:18:14.199Z,21.20
2019-03-26T10:20:47.107Z,21.20
2019-03-26T10:23:19.815Z,21.20
2019-03-26T10:25:52.545Z,21.20
2019-03-26T10:28:25.297Z,21.20
2019-03-26T10:30:57.960Z,21.20
2019-03-26T10:33:30.999Z,21.10
2019-03-26T10:36:03.920Z,21.10
2019-03-26T10:38:36.761Z,21.10
2019-03-26T10:41:09.514Z,21.10
2019-03-26T10:43:42.395Z,21.10
2019-03-26T10:46:15.120Z,21.00
2019-03-26T10:48:48.262Z,21.00
2019-03-26T10:51:21.289Z,21.00
2019-03-26T10:53:54.177Z,21.00
2019-03-26T10:56:27.057Z,21.00
2019-03-26T10:58:59.883Z,21.00
2019-03-26T11:01:32.687Z,21.00
2019-03-26T11:04:07.700Z,21.00
2019-03-26T11:06:39.972Z,21.00
2019-03-26T11:09:23.173Z,21.00
2019-03-26T11:11:46.641Z,21.00
2019-03-26T11:14:19.551Z,21.00
2019-03-26T11:16:52.445Z,21.00
2019-03-26T11:19:25.541Z,20.90
2019-03-26T11:21:58.104Z,20.90
2019-03-26T11:24:30.936Z,20.90
2019-03-26T11:27:03.528Z,20.90
2019-03-26T11:29:36.384Z,20.90
2019-03-26T11:32:09.370Z,20.90
2019-03-26T11:34:42.018Z,20.90
2019-03-26T11:37:14.973Z,20.80
2019-03-26T11:39:48.709Z,20.80
2019-03-26T11:42:22.744Z,20.80
2019-03-26T11:44:55.407Z,20.80
2019-03-26T11:47:28.487Z,20.80
2019-03-26T11:50:01.209Z,20.70
2019-03-26T11:52:33.934Z,20.70
2019-03-26T11:55:07.698Z,20.70
2019-03-26T11:57:40.587Z,20.70
2019-03-26T12:00:15.960Z,20.70
2019-03-26T12:02:48.647Z,20.70
2019-03-26T12:05:21.383Z,20.70
2019-03-26T12:07:53.988Z,20.70
2019-03-26T12:10:27.668Z,20.70
2019-03-26T12:13:00.660Z,20.70
2019-03-26T12:15:33.683Z,20.70
2019-03-26T12:18:06.578Z,20.70
2019-03-26T12:20:39.404Z,20.60
2019-03-26T12:23:12.041Z,20.60
2019-03-26T12:25:44.776Z,20.60
2019-03-26T12:28:18.213Z,20.60
2019-03-26T12:30:50.805Z,20.60
2019-03-26T12:33:23.246Z,20.60
2019-03-26T12:35:56.491Z,20.60
2019-03-26T12:38:30.050Z,20.60
2019-03-26T12:41:02.992Z,20.50
2019-03-26T12:43:35.615Z,20.50
2019-03-26T12:46:08.299Z,20.50
2019-03-26T12:48:40.995Z,20.50
2019-03-26T12:51:13.650Z,20.50
2019-03-26T12:53:46.339Z,20.50
2019-03-26T12:56:19.062Z,20.50
2019-03-26T12:58:52.003Z,20.50
2019-03-26T13:01:24.799Z,20.40
2019-03-26T13:03:57.467Z,20.40
2019-03-26T13:06:30.145Z,20.40
2019-03-26T13:09:02.972Z,20.40
2019-03-26T13:11:35.907Z,20.40
2019-03-26T13:14:08.940Z,20.40
2019-03-26T13:16:41.817Z,20.40
2019-03-26T13:19:14.784Z,20.40
2019-03-26T13:21:47.501Z,20.40
2019-03-26T13:24:20.357Z,20.40
2019-03-26T13:26:53.062Z,20.40
2019-03-26T13:29:26.001Z,20.40
2019-03-26T13:31:59.033Z,20.40
2019-03-26T13:34:32.380Z,20.40
2019-03-26T13:37:05.413Z,20.40
2019-03-26T13:39:38.574Z,20.40
2019-03-26T13:42:11.492Z,20.40
2019-03-26T13:44:44.163Z,20.40
2019-03-26T13:47:17.542Z,20.40
2019-03-26T13:49:50.167Z,20.40
2019-03-26T13:52:22.995Z,20.40
2019-03-26T13:54:55.720Z,20.40
2019-03-26T13:57:28.553Z,20.40
2019-03-26T14:00:01.689Z,20.40
2019-03-26T14:02:34.532Z,20.40
2019-03-26T14:05:08.834Z,20.40
2019-03-26T14:07:41.410Z,20.40
2019-03-26T14:10:15.280Z,20.30
2019-03-26T14:12:48.524Z,20.30
2019-03-26T14:15:21.408Z,20.30
2019-03-26T14:17:54.087Z,20.30
2019-03-26T14:20:27.284Z,20.30
2019-03-26T14:23:00.012Z,20.30
2019-03-26T14:25:33.060Z,20.30
2019-03-26T14:28:05.733Z,20.30
2019-03-26T14:30:40.273Z,20.30
2019-03-26T14:33:12.967Z,20.30
2019-03-26T14:35:45.893Z,20.30
2019-03-26T14:38:19.829Z,20.30
2019-03-26T14:40:55.364Z,20.30
2019-03-26T14:43:26.593Z,20.20
2019-03-26T14:45:59.330Z,20.20
2019-03-26T14:48:32.058Z,20.20
2019-03-26T14:51:05.739Z,20.20
2019-03-26T14:53:38.339Z,20.20
2019-03-26T14:56:11.474Z,20.30
2019-03-26T14:58:44.271Z,20.30
2019-03-26T15:01:17.185Z,20.30
2019-03-26T15:03:50.103Z,20.30
2019-03-26T15:06:22.884Z,20.30
2019-03-26T15:08:56.001Z,20.30
2019-03-26T15:11:29.288Z,20.30
2019-03-26T15:14:02.363Z,20.30
2019-03-26T15:16:35.985Z,20.30
2019-03-26T15:19:08.976Z,20.30
2019-03-26T15:21:42.704Z,20.20
2019-03-26T15:24:15.310Z,20.20
2019-03-26T15:26:47.937Z,20.20
2019-03-26T15:29:21.334Z,20.20
2019-03-26T15:31:54.118Z,20.20
2019-03-26T15:34:35.916Z,20.20
2019-03-26T15:37:01.394Z,20.20
2019-03-26T15:39:35.598Z,20.20
2019-03-26T15:42:08.579Z,20.20
2019-03-26T15:44:41.313Z,20.20
2019-03-26T15:47:14.287Z,20.20
2019-03-26T15:49:47.327Z,20.20
2019-03-26T15:52:20.215Z,20.10
2019-03-26T15:54:53.047Z,20.10
2019-03-26T15:57:27.057Z,20.10
2019-03-26T16:00:00.051Z,20.10
2019-03-26T16:02:34.118Z,20.10
2019-03-26T16:05:07.709Z,20.10
2019-03-26T16:07:40.477Z,20.10
2019-03-26T16:10:13.584Z,20.10
2019-03-26T16:12:46.413Z,20.10
2019-03-26T16:15:19.355Z,20.10
2019-03-26T16:17:52.225Z,20.10
2019-03-26T16:20:25.980Z,20.10
2019-03-26T16:22:58.913Z,20.10
2019-03-26T16:25:32.689Z,20.10
2019-03-26T16:28:05.208Z,20.10
2019-03-26T16:30:38.231Z,20.10
2019-03-26T16:33:11.121Z,20.10
2019-03-26T16:35:44.066Z,20.20
2019-03-26T16:38:16.691Z,20.20
2019-03-26T16:40:49.676Z,20.20
2019-03-26T16:43:22.294Z,20.20
2019-03-26T16:45:56.054Z,20.20
2019-03-26T16:48:28.671Z,20.20
2019-03-26T16:51:02.006Z,20.20
2019-03-26T16:53:35.263Z,20.30
2019-03-26T16:56:08.071Z,20.30
2019-03-26T16:58:40.752Z,20.30
2019-03-26T17:01:13.632Z,20.30
2019-03-26T17:03:46.293Z,20.40
2019-03-26T17:06:19.397Z,20.40
2019-03-26T17:08:52.050Z,20.40
2019-03-26T17:11:24.906Z,20.40
2019-03-26T17:13:57.942Z,20.40
2019-03-26T17:16:30.847Z,20.40
2019-03-26T17:19:03.805Z,20.30
2019-03-26T17:21:36.890Z,20.30
2019-03-26T17:24:09.685Z,20.30
2019-03-26T17:26:43.089Z,20.20
2019-03-26T17:29:15.743Z,20.20
2019-03-26T17:31:48.579Z,20.20
2019-03-26T17:34:21.175Z,20.20
2019-03-26T17:36:54.570Z,20.20
2019-03-26T17:39:27.487Z,20.10
2019-03-26T17:42:00.391Z,20.10
2019-03-26T17:44:33.065Z,20.10
2019-03-26T17:47:05.692Z,20.10
2019-03-26T17:49:38.429Z,20.10
2019-03-26T17:52:11.221Z,20.00
2019-03-26T17:54:43.793Z,20.00
2019-03-26T17:57:16.756Z,20.00
2019-03-26T17:59:49.335Z,20.00
2019-03-26T18:02:21.976Z,20.00
2019-03-26T18:04:55.107Z,20.00
2019-03-26T18:07:27.678Z,20.00
2019-03-26T18:10:00.387Z,20.00
2019-03-26T18:12:33.048Z,20.00
2019-03-26T18:15:05.885Z,20.00
2019-03-26T18:17:38.616Z,20.00
2019-03-26T18:20:11.630Z,20.00
2019-03-26T18:22:45.649Z,20.00
2019-03-26T18:25:18.665Z,20.00
2019-03-26T18:27:51.459Z,20.00
2019-03-26T18:30:24.500Z,20.00
2019-03-26T18:32:57.139Z,20.00
2019-03-26T18:35:29.936Z,20.00
2019-03-26T18:38:02.492Z,20.00
2019-03-26T18:40:35.996Z,20.00
2019-03-26T18:43:08.898Z,20.00
2019-03-26T18:45:42.344Z,20.00
2019-03-26T18:48:15.074Z,20.00
2019-03-26T18:50:48.949Z,20.00
2019-03-26T18:53:21.640Z,20.00
2019-03-26T18:55:54.218Z,20.00
2019-03-26T18:58:26.976Z,20.10
2019-03-26T19:00:59.577Z,20.10
2019-03-26T19:03:32.316Z,20.10
2019-03-26T19:06:04.987Z,20.10
2019-03-26T19:08:39.924Z,20.20
2019-03-26T19:11:11.727Z,20.20
2019-03-26T19:13:44.515Z,20.20
2019-03-26T19:16:16.955Z,20.30
2019-03-26T19:18:49.683Z,20.30
2019-03-26T19:21:22.403Z,20.30
2019-03-26T19:24:03.817Z,20.40
2019-03-26T19:26:29.579Z,20.40
2019-03-26T19:29:02.455Z,20.50
2019-03-26T19:31:35.079Z,20.50
2019-03-26T19:34:07.814Z,20.50
2019-03-26T19:36:40.915Z,20.60
2019-03-26T19:39:13.576Z,20.60
2019-03-26T19:41:46.100Z,20.70
2019-03-26T19:44:18.907Z,20.80
2019-03-26T19:46:52.301Z,20.90
2019-03-26T19:49:24.904Z,21.00
2019-03-26T19:51:57.797Z,21.10
2019-03-26T19:54:30.472Z,21.30
2019-03-26T19:57:03.214Z,21.40
2019-03-26T19:59:36.022Z,21.50
2019-03-26T20:02:08.885Z,21.70
2019-03-26T20:04:41.593Z,21.80
2019-03-26T20:07:14.273Z,21.90
2019-03-26T20:09:48.072Z,22.00
2019-03-26T20:12:20.934Z,22.30
2019-03-26T20:14:53.531Z,22.40
2019-03-26T20:17:26.420Z,22.70
2019-03-26T20:19:59.100Z,23.00
2019-03-26T20:22:32.565Z,23.30
2019-03-26T20:25:06.297Z,23.40
2019-03-26T20:27:39.346Z,23.50
2019-03-26T20:30:13.707Z,23.80
2019-03-26T20:32:46.945Z,24.10
2019-03-26T20:35:19.668Z,23.90
2019-03-26T20:37:52.556Z,24.20
2019-03-26T20:40:25.257Z,24.20
2019-03-26T20:42:58.010Z,23.80
2019-03-26T20:45:30.611Z,23.50
2019-03-26T20:48:03.445Z,23.80
2019-03-26T20:50:36.184Z,24.10
2019-03-26T20:53:09.000Z,24.60
2019-03-26T20:55:53.715Z,24.90
2019-03-26T20:58:15.738Z,25.50
2019-03-26T21:00:48.487Z,25.60
2019-03-26T21:03:21.172Z,25.90
2019-03-26T21:05:53.886Z,26.40
2019-03-26T21:08:26.826Z,26.90
2019-03-26T21:10:59.425Z,27.40
2019-03-26T21:13:32.292Z,27.90
2019-03-26T21:16:05.022Z,28.10
2019-03-26T21:18:37.434Z,28.20
2019-03-26T21:21:10.231Z,28.20
2019-03-26T21:23:42.932Z,28.10
2019-03-26T21:26:15.646Z,28.00
2019-03-26T21:28:48.312Z,27.70
2019-03-26T21:31:21.976Z,27.60
2019-03-26T21:33:54.556Z,27.20
2019-03-26T21:36:28.101Z,26.80
2019-03-26T21:39:01.205Z,26.80
2019-03-26T21:41:33.921Z,26.80
2019-03-26T21:44:06.838Z,26.70
2019-03-26T21:46:39.405Z,26.80
2019-03-26T21:49:12.253Z,26.90
2019-03-26T21:51:44.822Z,26.60
2019-03-26T21:54:17.909Z,26.50
2019-03-26T21:56:50.530Z,26.50
2019-03-26T21:59:23.372Z,26.30
2019-03-26T22:01:55.882Z,26.20
2019-03-26T22:04:28.491Z,26.30
2019-03-26T22:07:01.048Z,26.20
2019-03-26T22:09:33.856Z,25.90
2019-03-26T22:12:06.396Z,25.70
2019-03-26T22:14:39.180Z,25.80
2019-03-26T22:17:11.782Z,26.10
2019-03-26T22:19:44.696Z,26.10
2019-03-26T22:22:17.226Z,26.10
2019-03-26T22:24:50.802Z,26.30
2019-03-26T22:27:23.518Z,26.50
2019-03-26T22:29:56.361Z,26.80
2019-03-26T22:32:29.365Z,27.00
2019-03-26T22:35:01.953Z,27.20
2019-03-26T22:37:34.913Z,27.30
2019-03-26T22:40:11.393Z,27.00
2019-03-26T22:42:44.240Z,26.70
2019-03-26T22:45:17.302Z,26.30
2019-03-26T22:47:50.044Z,26.10
2019-03-26T22:50:22.642Z,25.90
2019-03-26T22:52:55.233Z,26.00
2019-03-26T22:55:27.725Z,26.30
2019-03-26T22:58:00.557Z,26.60
2019-03-26T23:00:34.321Z,26.80
2019-03-26T23:03:08.384Z,27.10
2019-03-26T23:05:40.980Z,27.60
2019-03-26T23:08:14.017Z,28.10
2019-03-26T23:10:46.731Z,28.50
2019-03-26T23:13:19.530Z,28.30
2019-03-26T23:15:51.965Z,28.40
2019-03-26T23:18:24.667Z,28.80
2019-03-26T23:20:57.577Z,28.80
2019-03-26T23:23:30.340Z,29.00
2019-03-26T23:26:06.193Z,29.40
2019-03-26T23:28:39.505Z,29.40
2019-03-26T23:31:12.251Z,29.50
2019-03-26T23:33:44.842Z,29.50
2019-03-26T23:36:17.651Z,29.50
2019-03-26T23:38:51.791Z,29.30
2019-03-26T23:41:24.419Z,28.90
2019-03-26T23:43:57.208Z,28.40
2019-03-26T23:46:29.885Z,28.10
2019-03-26T23:49:02.677Z,28.00
2019-03-26T23:51:35.362Z,28.00
2019-03-26T23:54:07.926Z,28.10
2019-03-26T23:56:40.730Z,28.20
2019-03-26T23:59:13.274Z,28.30
